sensor_id;sensor_type;location;lat;lon;timestamp;P1;durP1;ratioP1;P2;durP2;ratioP2
13230;SDS011;6681;53.254;10.398;2023-12-28T00:00:26;3.47;;;2.30;;
13230;SDS011;6681;53.254;10.398;2023-12-28T00:02:52;6.23;;;2.33;;
13230;SDS011;6681;53.254;10.398;2023-12-28T00:05:17;3.37;;;2.20;;
13230;SDS011;6681;53.254;10.398;2023-12-28T00:07:43;3.57;;;2.07;;
13230;SDS011;6681;53.254;10.398;2023-12-28T00:10:09;2.03;;;1.47;;
13230;SDS011;6681;53.254;10.398;2023-12-28T00:12:35;4.17;;;2.33;;
13230;SDS011;6681;53.254;10.398;2023-12-28T00:15:00;5.60;;;2.23;;
13230;SDS011;6681;53.254;10.398;2023-12-28T00:17:26;3.87;;;2.40;;
13230;SDS011;6681;53.254;10.398;2023-12-28T00:19:52;2.87;;;1.80;;
13230;SDS011;6681;53.254;10.398;2023-12-28T00:22:17;2.23;;;1.87;;
13230;SDS011;6681;53.254;10.398;2023-12-28T00:24:43;4.93;;;2.40;;
13230;SDS011;6681;53.254;10.398;2023-12-28T00:27:12;5.13;;;2.00;;
13230;SDS011;6681;53.254;10.398;2023-12-28T00:29:37;2.30;;;1.80;;
13230;SDS011;6681;53.254;10.398;2023-12-28T00:32:07;3.73;;;1.90;;
13230;SDS011;6681;53.254;10.398;2023-12-28T00:34:32;1.83;;;1.27;;
13230;SDS011;6681;53.254;10.398;2023-12-28T00:36:58;2.70;;;1.90;;
13230;SDS011;6681;53.254;10.398;2023-12-28T00:39:24;3.33;;;1.63;;
13230;SDS011;6681;53.254;10.398;2023-12-28T00:41:49;2.53;;;2.00;;
13230;SDS011;6681;53.254;10.398;2023-12-28T00:44:15;1.43;;;1.33;;
13230;SDS011;6681;53.254;10.398;2023-12-28T00:46:41;1.97;;;1.53;;
13230;SDS011;6681;53.254;10.398;2023-12-28T00:49:06;1.70;;;1.47;;
13230;SDS011;6681;53.254;10.398;2023-12-28T00:51:33;1.60;;;1.40;;
13230;SDS011;6681;53.254;10.398;2023-12-28T00:53:58;2.33;;;1.50;;
13230;SDS011;6681;53.254;10.398;2023-12-28T00:56:24;4.93;;;1.47;;
13230;SDS011;6681;53.254;10.398;2023-12-28T00:58:50;2.67;;;1.67;;
13230;SDS011;6681;53.254;10.398;2023-12-28T01:01:15;4.60;;;1.53;;
13230;SDS011;6681;53.254;10.398;2023-12-28T01:03:41;2.90;;;2.17;;
13230;SDS011;6681;53.254;10.398;2023-12-28T01:06:06;4.13;;;1.97;;
13230;SDS011;6681;53.254;10.398;2023-12-28T01:08:32;1.73;;;1.23;;
13230;SDS011;6681;53.254;10.398;2023-12-28T01:11:01;2.40;;;1.67;;
13230;SDS011;6681;53.254;10.398;2023-12-28T01:13:27;2.67;;;1.40;;
13230;SDS011;6681;53.254;10.398;2023-12-28T01:15:53;3.90;;;2.07;;
13230;SDS011;6681;53.254;10.398;2023-12-28T01:18:19;1.80;;;1.67;;
13230;SDS011;6681;53.254;10.398;2023-12-28T01:20:45;3.30;;;1.90;;
13230;SDS011;6681;53.254;10.398;2023-12-28T01:23:11;2.00;;;1.40;;
13230;SDS011;6681;53.254;10.398;2023-12-28T01:25:36;6.00;;;1.97;;
13230;SDS011;6681;53.254;10.398;2023-12-28T01:28:02;4.43;;;1.83;;
13230;SDS011;6681;53.254;10.398;2023-12-28T01:30:28;2.53;;;1.73;;
13230;SDS011;6681;53.254;10.398;2023-12-28T01:32:54;3.63;;;1.80;;
13230;SDS011;6681;53.254;10.398;2023-12-28T01:35:19;2.23;;;2.03;;
13230;SDS011;6681;53.254;10.398;2023-12-28T01:37:45;6.33;;;2.50;;
13230;SDS011;6681;53.254;10.398;2023-12-28T01:40:10;1.67;;;1.43;;
13230;SDS011;6681;53.254;10.398;2023-12-28T01:42:37;3.63;;;1.50;;
13230;SDS011;6681;53.254;10.398;2023-12-28T01:45:03;3.37;;;2.07;;
13230;SDS011;6681;53.254;10.398;2023-12-28T01:47:29;4.03;;;2.10;;
13230;SDS011;6681;53.254;10.398;2023-12-28T01:49:58;3.73;;;1.77;;
13230;SDS011;6681;53.254;10.398;2023-12-28T01:52:25;4.30;;;1.60;;
13230;SDS011;6681;53.254;10.398;2023-12-28T01:54:51;3.10;;;1.13;;
13230;SDS011;6681;53.254;10.398;2023-12-28T01:57:17;5.50;;;1.60;;
13230;SDS011;6681;53.254;10.398;2023-12-28T01:59:43;5.67;;;1.90;;
13230;SDS011;6681;53.254;10.398;2023-12-28T02:02:09;2.20;;;1.93;;
13230;SDS011;6681;53.254;10.398;2023-12-28T02:04:35;7.80;;;2.03;;
13230;SDS011;6681;53.254;10.398;2023-12-28T02:07:01;2.63;;;1.70;;
13230;SDS011;6681;53.254;10.398;2023-12-28T02:09:27;4.43;;;2.17;;
13230;SDS011;6681;53.254;10.398;2023-12-28T02:11:53;5.87;;;2.57;;
13230;SDS011;6681;53.254;10.398;2023-12-28T02:14:19;1.57;;;1.37;;
13230;SDS011;6681;53.254;10.398;2023-12-28T02:16:47;2.43;;;1.53;;
13230;SDS011;6681;53.254;10.398;2023-12-28T02:19:31;2.87;;;1.57;;
13230;SDS011;6681;53.254;10.398;2023-12-28T02:22:04;1.83;;;1.37;;
13230;SDS011;6681;53.254;10.398;2023-12-28T02:24:29;3.87;;;1.53;;
13230;SDS011;6681;53.254;10.398;2023-12-28T02:26:55;1.90;;;1.40;;
13230;SDS011;6681;53.254;10.398;2023-12-28T02:29:21;3.57;;;1.60;;
13230;SDS011;6681;53.254;10.398;2023-12-28T02:31:50;1.60;;;1.47;;
13230;SDS011;6681;53.254;10.398;2023-12-28T02:34:24;3.90;;;2.20;;
13230;SDS011;6681;53.254;10.398;2023-12-28T02:36:54;2.73;;;1.77;;
13230;SDS011;6681;53.254;10.398;2023-12-28T02:39:21;2.13;;;1.67;;
13230;SDS011;6681;53.254;10.398;2023-12-28T02:41:48;2.93;;;1.77;;
13230;SDS011;6681;53.254;10.398;2023-12-28T02:44:14;2.30;;;2.10;;
13230;SDS011;6681;53.254;10.398;2023-12-28T02:46:40;3.47;;;1.77;;
13230;SDS011;6681;53.254;10.398;2023-12-28T02:49:05;3.33;;;1.87;;
13230;SDS011;6681;53.254;10.398;2023-12-28T02:51:31;5.33;;;2.47;;
13230;SDS011;6681;53.254;10.398;2023-12-28T02:53:57;3.27;;;2.13;;
13230;SDS011;6681;53.254;10.398;2023-12-28T02:56:23;7.60;;;2.13;;
13230;SDS011;6681;53.254;10.398;2023-12-28T02:58:48;3.37;;;2.27;;
13230;SDS011;6681;53.254;10.398;2023-12-28T03:01:14;4.43;;;2.23;;
13230;SDS011;6681;53.254;10.398;2023-12-28T03:03:39;2.53;;;2.13;;
13230;SDS011;6681;53.254;10.398;2023-12-28T03:06:05;3.10;;;2.30;;
13230;SDS011;6681;53.254;10.398;2023-12-28T03:08:31;3.13;;;2.33;;
13230;SDS011;6681;53.254;10.398;2023-12-28T03:10:56;2.43;;;2.00;;
13230;SDS011;6681;53.254;10.398;2023-12-28T03:13:22;3.90;;;3.27;;
13230;SDS011;6681;53.254;10.398;2023-12-28T03:15:48;2.63;;;2.43;;
13230;SDS011;6681;53.254;10.398;2023-12-28T03:18:13;3.37;;;2.67;;
13230;SDS011;6681;53.254;10.398;2023-12-28T03:20:39;20.43;;;3.17;;
13230;SDS011;6681;53.254;10.398;2023-12-28T03:23:05;3.60;;;3.23;;
13230;SDS011;6681;53.254;10.398;2023-12-28T03:25:30;3.23;;;2.77;;
13230;SDS011;6681;53.254;10.398;2023-12-28T03:27:56;3.17;;;2.47;;
13230;SDS011;6681;53.254;10.398;2023-12-28T03:30:21;5.43;;;2.27;;
13230;SDS011;6681;53.254;10.398;2023-12-28T03:32:47;4.17;;;3.80;;
13230;SDS011;6681;53.254;10.398;2023-12-28T03:35:12;3.17;;;2.73;;
13230;SDS011;6681;53.254;10.398;2023-12-28T03:37:38;3.27;;;2.87;;
13230;SDS011;6681;53.254;10.398;2023-12-28T03:40:04;2.90;;;2.50;;
13230;SDS011;6681;53.254;10.398;2023-12-28T03:42:30;3.90;;;2.13;;
13230;SDS011;6681;53.254;10.398;2023-12-28T03:44:55;3.70;;;2.93;;
13230;SDS011;6681;53.254;10.398;2023-12-28T03:47:21;5.40;;;3.97;;
13230;SDS011;6681;53.254;10.398;2023-12-28T03:49:49;2.63;;;2.40;;
13230;SDS011;6681;53.254;10.398;2023-12-28T03:52:14;5.30;;;2.37;;
13230;SDS011;6681;53.254;10.398;2023-12-28T03:54:40;3.43;;;2.37;;
13230;SDS011;6681;53.254;10.398;2023-12-28T03:57:05;3.53;;;2.60;;
13230;SDS011;6681;53.254;10.398;2023-12-28T03:59:31;3.17;;;2.73;;
13230;SDS011;6681;53.254;10.398;2023-12-28T04:01:57;4.83;;;2.90;;
13230;SDS011;6681;53.254;10.398;2023-12-28T04:04:22;7.23;;;2.97;;
13230;SDS011;6681;53.254;10.398;2023-12-28T04:06:48;3.73;;;3.23;;
13230;SDS011;6681;53.254;10.398;2023-12-28T04:09:14;5.10;;;2.77;;
13230;SDS011;6681;53.254;10.398;2023-12-28T04:11:39;3.50;;;2.20;;
13230;SDS011;6681;53.254;10.398;2023-12-28T04:14:05;4.77;;;2.73;;
13230;SDS011;6681;53.254;10.398;2023-12-28T04:16:31;4.03;;;2.83;;
13230;SDS011;6681;53.254;10.398;2023-12-28T04:18:56;4.00;;;2.63;;
13230;SDS011;6681;53.254;10.398;2023-12-28T04:21:22;3.67;;;3.00;;
13230;SDS011;6681;53.254;10.398;2023-12-28T04:23:48;8.07;;;4.00;;
13230;SDS011;6681;53.254;10.398;2023-12-28T04:26:13;3.57;;;3.07;;
13230;SDS011;6681;53.254;10.398;2023-12-28T04:28:39;5.43;;;3.03;;
13230;SDS011;6681;53.254;10.398;2023-12-28T04:31:05;6.73;;;2.80;;
13230;SDS011;6681;53.254;10.398;2023-12-28T04:33:31;6.90;;;2.70;;
13230;SDS011;6681;53.254;10.398;2023-12-28T04:36:00;2.80;;;2.23;;
13230;SDS011;6681;53.254;10.398;2023-12-28T04:38:28;3.17;;;2.87;;
13230;SDS011;6681;53.254;10.398;2023-12-28T04:40:54;3.37;;;2.43;;
13230;SDS011;6681;53.254;10.398;2023-12-28T04:43:19;3.13;;;2.83;;
13230;SDS011;6681;53.254;10.398;2023-12-28T04:45:45;6.43;;;3.60;;
13230;SDS011;6681;53.254;10.398;2023-12-28T04:48:11;4.83;;;2.73;;
13230;SDS011;6681;53.254;10.398;2023-12-28T04:50:36;5.60;;;3.27;;
13230;SDS011;6681;53.254;10.398;2023-12-28T04:53:02;4.00;;;2.50;;
13230;SDS011;6681;53.254;10.398;2023-12-28T04:55:28;4.37;;;2.37;;
13230;SDS011;6681;53.254;10.398;2023-12-28T04:57:54;2.97;;;2.70;;
13230;SDS011;6681;53.254;10.398;2023-12-28T05:00:19;7.57;;;2.77;;
13230;SDS011;6681;53.254;10.398;2023-12-28T05:02:45;2.50;;;2.30;;
13230;SDS011;6681;53.254;10.398;2023-12-28T05:05:13;4.33;;;2.87;;
13230;SDS011;6681;53.254;10.398;2023-12-28T05:07:39;5.90;;;2.40;;
13230;SDS011;6681;53.254;10.398;2023-12-28T05:10:05;4.23;;;3.37;;
13230;SDS011;6681;53.254;10.398;2023-12-28T05:12:31;3.67;;;2.43;;
13230;SDS011;6681;53.254;10.398;2023-12-28T05:14:56;2.67;;;2.30;;
13230;SDS011;6681;53.254;10.398;2023-12-28T05:17:22;5.83;;;3.10;;
13230;SDS011;6681;53.254;10.398;2023-12-28T05:19:47;3.20;;;2.77;;
13230;SDS011;6681;53.254;10.398;2023-12-28T05:22:13;3.77;;;2.67;;
13230;SDS011;6681;53.254;10.398;2023-12-28T05:24:38;5.50;;;3.27;;
13230;SDS011;6681;53.254;10.398;2023-12-28T05:27:04;3.03;;;2.60;;
13230;SDS011;6681;53.254;10.398;2023-12-28T05:29:30;3.43;;;2.40;;
13230;SDS011;6681;53.254;10.398;2023-12-28T05:31:55;3.83;;;2.20;;
13230;SDS011;6681;53.254;10.398;2023-12-28T05:34:21;6.57;;;4.27;;
13230;SDS011;6681;53.254;10.398;2023-12-28T05:36:46;5.63;;;2.40;;
13230;SDS011;6681;53.254;10.398;2023-12-28T05:39:12;4.90;;;3.27;;
13230;SDS011;6681;53.254;10.398;2023-12-28T05:41:40;6.73;;;2.80;;
13230;SDS011;6681;53.254;10.398;2023-12-28T05:44:06;3.07;;;2.40;;
13230;SDS011;6681;53.254;10.398;2023-12-28T05:46:32;6.07;;;2.67;;
13230;SDS011;6681;53.254;10.398;2023-12-28T05:49:00;4.10;;;2.60;;
13230;SDS011;6681;53.254;10.398;2023-12-28T05:51:26;4.77;;;3.33;;
13230;SDS011;6681;53.254;10.398;2023-12-28T05:53:52;4.73;;;3.13;;
13230;SDS011;6681;53.254;10.398;2023-12-28T05:56:17;5.50;;;2.93;;
13230;SDS011;6681;53.254;10.398;2023-12-28T05:58:43;2.60;;;2.40;;
13230;SDS011;6681;53.254;10.398;2023-12-28T06:01:08;2.60;;;2.10;;
13230;SDS011;6681;53.254;10.398;2023-12-28T06:03:34;3.30;;;2.63;;
13230;SDS011;6681;53.254;10.398;2023-12-28T06:05:59;5.57;;;2.70;;
13230;SDS011;6681;53.254;10.398;2023-12-28T06:08:25;3.27;;;2.40;;
13230;SDS011;6681;53.254;10.398;2023-12-28T06:10:51;8.23;;;2.23;;
13230;SDS011;6681;53.254;10.398;2023-12-28T06:13:16;4.43;;;2.40;;
13230;SDS011;6681;53.254;10.398;2023-12-28T06:15:42;2.93;;;2.47;;
13230;SDS011;6681;53.254;10.398;2023-12-28T06:18:08;5.87;;;2.60;;
13230;SDS011;6681;53.254;10.398;2023-12-28T06:20:34;4.00;;;3.27;;
13230;SDS011;6681;53.254;10.398;2023-12-28T06:23:01;3.63;;;2.23;;
13230;SDS011;6681;53.254;10.398;2023-12-28T06:25:26;4.23;;;2.27;;
13230;SDS011;6681;53.254;10.398;2023-12-28T06:27:52;3.33;;;2.10;;
13230;SDS011;6681;53.254;10.398;2023-12-28T06:30:17;4.90;;;2.80;;
13230;SDS011;6681;53.254;10.398;2023-12-28T06:32:43;4.97;;;2.70;;
13230;SDS011;6681;53.254;10.398;2023-12-28T06:35:09;5.83;;;2.40;;
13230;SDS011;6681;53.254;10.398;2023-12-28T06:37:34;7.53;;;2.80;;
13230;SDS011;6681;53.254;10.398;2023-12-28T06:40:00;2.33;;;2.13;;
13230;SDS011;6681;53.254;10.398;2023-12-28T06:42:25;5.07;;;2.33;;
13230;SDS011;6681;53.254;10.398;2023-12-28T06:44:51;4.33;;;2.83;;
13230;SDS011;6681;53.254;10.398;2023-12-28T06:47:17;3.77;;;1.83;;
13230;SDS011;6681;53.254;10.398;2023-12-28T06:49:45;6.33;;;2.57;;
13230;SDS011;6681;53.254;10.398;2023-12-28T06:52:11;7.07;;;3.00;;
13230;SDS011;6681;53.254;10.398;2023-12-28T06:54:37;8.43;;;2.27;;
13230;SDS011;6681;53.254;10.398;2023-12-28T06:57:02;8.80;;;3.33;;
13230;SDS011;6681;53.254;10.398;2023-12-28T06:59:28;7.83;;;2.60;;
13230;SDS011;6681;53.254;10.398;2023-12-28T07:01:54;4.17;;;2.60;;
13230;SDS011;6681;53.254;10.398;2023-12-28T07:04:19;4.20;;;2.67;;
13230;SDS011;6681;53.254;10.398;2023-12-28T07:06:46;3.27;;;2.33;;
13230;SDS011;6681;53.254;10.398;2023-12-28T07:09:11;4.47;;;2.27;;
13230;SDS011;6681;53.254;10.398;2023-12-28T07:11:37;8.50;;;3.00;;
13230;SDS011;6681;53.254;10.398;2023-12-28T07:14:02;3.63;;;2.23;;
13230;SDS011;6681;53.254;10.398;2023-12-28T07:16:28;8.90;;;3.30;;
13230;SDS011;6681;53.254;10.398;2023-12-28T07:18:54;4.13;;;2.40;;
13230;SDS011;6681;53.254;10.398;2023-12-28T07:21:20;3.73;;;2.00;;
13230;SDS011;6681;53.254;10.398;2023-12-28T07:23:45;3.77;;;2.10;;
13230;SDS011;6681;53.254;10.398;2023-12-28T07:26:14;4.40;;;2.23;;
13230;SDS011;6681;53.254;10.398;2023-12-28T07:28:40;7.50;;;2.40;;
13230;SDS011;6681;53.254;10.398;2023-12-28T07:31:08;4.40;;;2.57;;
13230;SDS011;6681;53.254;10.398;2023-12-28T07:33:33;4.83;;;2.20;;
13230;SDS011;6681;53.254;10.398;2023-12-28T07:35:59;5.00;;;2.13;;
13230;SDS011;6681;53.254;10.398;2023-12-28T07:38:27;7.17;;;2.17;;
13230;SDS011;6681;53.254;10.398;2023-12-28T07:40:53;2.77;;;2.00;;
13230;SDS011;6681;53.254;10.398;2023-12-28T07:43:18;6.60;;;2.30;;
13230;SDS011;6681;53.254;10.398;2023-12-28T07:45:44;11.70;;;2.10;;
13230;SDS011;6681;53.254;10.398;2023-12-28T07:48:10;1.93;;;1.60;;
13230;SDS011;6681;53.254;10.398;2023-12-28T07:50:35;9.93;;;2.40;;
13230;SDS011;6681;53.254;10.398;2023-12-28T07:53:01;2.93;;;1.67;;
13230;SDS011;6681;53.254;10.398;2023-12-28T07:55:26;4.17;;;1.93;;
13230;SDS011;6681;53.254;10.398;2023-12-28T07:57:52;8.57;;;2.57;;
13230;SDS011;6681;53.254;10.398;2023-12-28T08:00:18;5.53;;;2.17;;
13230;SDS011;6681;53.254;10.398;2023-12-28T08:02:47;9.03;;;1.93;;
13230;SDS011;6681;53.254;10.398;2023-12-28T08:05:13;4.03;;;2.00;;
13230;SDS011;6681;53.254;10.398;2023-12-28T08:07:38;3.93;;;1.47;;
13230;SDS011;6681;53.254;10.398;2023-12-28T08:10:04;3.77;;;1.80;;
13230;SDS011;6681;53.254;10.398;2023-12-28T08:12:30;4.03;;;2.00;;
13230;SDS011;6681;53.254;10.398;2023-12-28T08:14:56;2.83;;;1.80;;
13230;SDS011;6681;53.254;10.398;2023-12-28T08:17:22;6.53;;;2.00;;
13230;SDS011;6681;53.254;10.398;2023-12-28T08:19:47;10.33;;;3.03;;
13230;SDS011;6681;53.254;10.398;2023-12-28T08:22:13;3.00;;;2.47;;
13230;SDS011;6681;53.254;10.398;2023-12-28T08:24:38;5.60;;;2.13;;
13230;SDS011;6681;53.254;10.398;2023-12-28T08:27:04;4.97;;;2.70;;
13230;SDS011;6681;53.254;10.398;2023-12-28T08:29:30;5.20;;;1.80;;
13230;SDS011;6681;53.254;10.398;2023-12-28T08:31:56;6.53;;;2.53;;
13230;SDS011;6681;53.254;10.398;2023-12-28T08:34:21;3.53;;;1.93;;
13230;SDS011;6681;53.254;10.398;2023-12-28T08:36:47;6.20;;;1.97;;
13230;SDS011;6681;53.254;10.398;2023-12-28T08:39:17;9.23;;;2.03;;
13230;SDS011;6681;53.254;10.398;2023-12-28T08:41:43;6.60;;;1.90;;
13230;SDS011;6681;53.254;10.398;2023-12-28T08:44:08;4.33;;;1.80;;
13230;SDS011;6681;53.254;10.398;2023-12-28T08:46:34;6.50;;;1.50;;
13230;SDS011;6681;53.254;10.398;2023-12-28T08:48:59;3.87;;;1.63;;
13230;SDS011;6681;53.254;10.398;2023-12-28T08:51:25;2.97;;;1.67;;
13230;SDS011;6681;53.254;10.398;2023-12-28T08:53:51;7.67;;;2.40;;
13230;SDS011;6681;53.254;10.398;2023-12-28T08:56:20;5.30;;;1.83;;
13230;SDS011;6681;53.254;10.398;2023-12-28T08:58:49;2.87;;;1.50;;
13230;SDS011;6681;53.254;10.398;2023-12-28T09:01:23;2.97;;;1.60;;
13230;SDS011;6681;53.254;10.398;2023-12-28T09:03:52;5.40;;;2.30;;
13230;SDS011;6681;53.254;10.398;2023-12-28T09:06:19;5.57;;;3.00;;
13230;SDS011;6681;53.254;10.398;2023-12-28T09:08:47;5.53;;;2.63;;
13230;SDS011;6681;53.254;10.398;2023-12-28T09:11:14;4.33;;;1.90;;
13230;SDS011;6681;53.254;10.398;2023-12-28T09:13:40;5.10;;;1.50;;
13230;SDS011;6681;53.254;10.398;2023-12-28T09:16:07;8.00;;;2.40;;
13230;SDS011;6681;53.254;10.398;2023-12-28T09:18:33;8.27;;;2.10;;
13230;SDS011;6681;53.254;10.398;2023-12-28T09:20:59;6.80;;;1.70;;
13230;SDS011;6681;53.254;10.398;2023-12-28T09:23:24;4.50;;;1.80;;
13230;SDS011;6681;53.254;10.398;2023-12-28T09:25:50;5.00;;;2.40;;
13230;SDS011;6681;53.254;10.398;2023-12-28T09:28:15;6.50;;;2.43;;
13230;SDS011;6681;53.254;10.398;2023-12-28T09:30:41;9.33;;;2.43;;
13230;SDS011;6681;53.254;10.398;2023-12-28T09:33:06;9.07;;;1.63;;
13230;SDS011;6681;53.254;10.398;2023-12-28T09:35:32;6.90;;;1.73;;
13230;SDS011;6681;53.254;10.398;2023-12-28T09:37:58;8.67;;;2.40;;
13230;SDS011;6681;53.254;10.398;2023-12-28T09:40:24;5.63;;;2.13;;
13230;SDS011;6681;53.254;10.398;2023-12-28T09:43:12;4.63;;;1.90;;
13230;SDS011;6681;53.254;10.398;2023-12-28T09:45:49;14.30;;;2.03;;
13230;SDS011;6681;53.254;10.398;2023-12-28T09:48:18;9.83;;;1.97;;
13230;SDS011;6681;53.254;10.398;2023-12-28T09:50:45;4.90;;;1.60;;
13230;SDS011;6681;53.254;10.398;2023-12-28T09:53:14;4.23;;;1.80;;
13230;SDS011;6681;53.254;10.398;2023-12-28T09:55:40;4.80;;;1.47;;
13230;SDS011;6681;53.254;10.398;2023-12-28T09:58:05;3.93;;;1.40;;
13230;SDS011;6681;53.254;10.398;2023-12-28T10:00:32;6.20;;;1.70;;
13230;SDS011;6681;53.254;10.398;2023-12-28T10:02:57;4.67;;;1.53;;
13230;SDS011;6681;53.254;10.398;2023-12-28T10:05:23;13.10;;;2.40;;
13230;SDS011;6681;53.254;10.398;2023-12-28T10:07:50;6.47;;;1.47;;
13230;SDS011;6681;53.254;10.398;2023-12-28T10:10:15;5.60;;;1.70;;
13230;SDS011;6681;53.254;10.398;2023-12-28T10:12:41;4.70;;;1.90;;
13230;SDS011;6681;53.254;10.398;2023-12-28T10:15:09;5.50;;;1.83;;
13230;SDS011;6681;53.254;10.398;2023-12-28T10:17:35;5.00;;;1.77;;
13230;SDS011;6681;53.254;10.398;2023-12-28T10:20:01;8.00;;;1.70;;
13230;SDS011;6681;53.254;10.398;2023-12-28T10:22:29;6.30;;;1.70;;
13230;SDS011;6681;53.254;10.398;2023-12-28T10:24:55;6.70;;;2.27;;
13230;SDS011;6681;53.254;10.398;2023-12-28T10:27:21;7.00;;;1.90;;
13230;SDS011;6681;53.254;10.398;2023-12-28T10:29:47;6.57;;;1.60;;
13230;SDS011;6681;53.254;10.398;2023-12-28T10:32:13;7.60;;;2.60;;
13230;SDS011;6681;53.254;10.398;2023-12-28T10:34:38;4.40;;;1.73;;
13230;SDS011;6681;53.254;10.398;2023-12-28T10:37:04;6.50;;;1.37;;
13230;SDS011;6681;53.254;10.398;2023-12-28T10:39:31;8.20;;;1.97;;
13230;SDS011;6681;53.254;10.398;2023-12-28T10:41:59;6.47;;;1.83;;
13230;SDS011;6681;53.254;10.398;2023-12-28T10:44:29;4.50;;;1.77;;
13230;SDS011;6681;53.254;10.398;2023-12-28T10:47:00;7.93;;;1.83;;
13230;SDS011;6681;53.254;10.398;2023-12-28T10:49:28;7.13;;;2.00;;
13230;SDS011;6681;53.254;10.398;2023-12-28T10:51:57;7.17;;;1.70;;
13230;SDS011;6681;53.254;10.398;2023-12-28T10:57:32;6.50;;;2.50;;
13230;SDS011;6681;53.254;10.398;2023-12-28T11:02:37;6.40;;;1.80;;
13230;SDS011;6681;53.254;10.398;2023-12-28T11:05:09;4.53;;;2.00;;
13230;SDS011;6681;53.254;10.398;2023-12-28T11:07:40;7.67;;;1.80;;
13230;SDS011;6681;53.254;10.398;2023-12-28T11:10:07;6.50;;;2.10;;
13230;SDS011;6681;53.254;10.398;2023-12-28T11:12:35;9.47;;;1.90;;
13230;SDS011;6681;53.254;10.398;2023-12-28T11:15:02;17.00;;;2.13;;
13230;SDS011;6681;53.254;10.398;2023-12-28T11:17:30;6.67;;;2.03;;
13230;SDS011;6681;53.254;10.398;2023-12-28T11:19:56;4.07;;;1.93;;
13230;SDS011;6681;53.254;10.398;2023-12-28T11:22:22;5.07;;;1.63;;
13230;SDS011;6681;53.254;10.398;2023-12-28T11:24:52;7.37;;;2.00;;
13230;SDS011;6681;53.254;10.398;2023-12-28T11:27:18;3.97;;;1.67;;
13230;SDS011;6681;53.254;10.398;2023-12-28T11:29:44;5.47;;;2.13;;
13230;SDS011;6681;53.254;10.398;2023-12-28T11:32:12;4.07;;;2.27;;
13230;SDS011;6681;53.254;10.398;2023-12-28T11:34:39;6.30;;;1.70;;
13230;SDS011;6681;53.254;10.398;2023-12-28T11:37:08;6.07;;;1.97;;
13230;SDS011;6681;53.254;10.398;2023-12-28T11:39:39;7.90;;;2.70;;
13230;SDS011;6681;53.254;10.398;2023-12-28T11:42:08;9.63;;;3.00;;
13230;SDS011;6681;53.254;10.398;2023-12-28T11:44:38;5.57;;;1.87;;
13230;SDS011;6681;53.254;10.398;2023-12-28T11:47:13;6.10;;;3.13;;
13230;SDS011;6681;53.254;10.398;2023-12-28T11:49:40;8.63;;;2.40;;
13230;SDS011;6681;53.254;10.398;2023-12-28T11:52:07;9.13;;;2.40;;
13230;SDS011;6681;53.254;10.398;2023-12-28T11:54:36;4.63;;;1.80;;
13230;SDS011;6681;53.254;10.398;2023-12-28T11:57:01;9.90;;;2.23;;
13230;SDS011;6681;53.254;10.398;2023-12-28T11:59:27;6.07;;;2.27;;
13230;SDS011;6681;53.254;10.398;2023-12-28T12:01:53;7.90;;;2.97;;
13230;SDS011;6681;53.254;10.398;2023-12-28T12:04:19;13.47;;;4.03;;
13230;SDS011;6681;53.254;10.398;2023-12-28T12:06:45;11.83;;;2.30;;
13230;SDS011;6681;53.254;10.398;2023-12-28T12:09:11;6.27;;;1.90;;
13230;SDS011;6681;53.254;10.398;2023-12-28T12:11:38;8.23;;;2.47;;
13230;SDS011;6681;53.254;10.398;2023-12-28T12:14:07;10.23;;;1.90;;
13230;SDS011;6681;53.254;10.398;2023-12-28T12:16:37;16.23;;;2.80;;
13230;SDS011;6681;53.254;10.398;2023-12-28T12:19:06;5.73;;;2.03;;
13230;SDS011;6681;53.254;10.398;2023-12-28T12:21:33;10.80;;;2.43;;
13230;SDS011;6681;53.254;10.398;2023-12-28T12:23:59;8.33;;;2.20;;
13230;SDS011;6681;53.254;10.398;2023-12-28T12:26:26;7.43;;;2.27;;
13230;SDS011;6681;53.254;10.398;2023-12-28T12:28:52;6.87;;;2.23;;
13230;SDS011;6681;53.254;10.398;2023-12-28T12:31:17;7.63;;;2.00;;
13230;SDS011;6681;53.254;10.398;2023-12-28T12:33:44;8.07;;;1.83;;
13230;SDS011;6681;53.254;10.398;2023-12-28T12:36:10;4.97;;;1.87;;
13230;SDS011;6681;53.254;10.398;2023-12-28T12:38:36;11.57;;;2.53;;
13230;SDS011;6681;53.254;10.398;2023-12-28T12:41:01;9.40;;;2.30;;
13230;SDS011;6681;53.254;10.398;2023-12-28T12:43:27;9.47;;;3.57;;
13230;SDS011;6681;53.254;10.398;2023-12-28T12:45:53;7.60;;;2.60;;
13230;SDS011;6681;53.254;10.398;2023-12-28T12:48:19;8.27;;;4.13;;
13230;SDS011;6681;53.254;10.398;2023-12-28T12:50:45;20.00;;;4.20;;
13230;SDS011;6681;53.254;10.398;2023-12-28T12:53:11;13.03;;;4.00;;
13230;SDS011;6681;53.254;10.398;2023-12-28T12:55:37;8.33;;;4.07;;
13230;SDS011;6681;53.254;10.398;2023-12-28T12:58:10;10.87;;;3.90;;
13230;SDS011;6681;53.254;10.398;2023-12-28T13:00:38;8.23;;;4.20;;
13230;SDS011;6681;53.254;10.398;2023-12-28T13:03:07;13.77;;;4.80;;
13230;SDS011;6681;53.254;10.398;2023-12-28T13:05:35;8.93;;;2.83;;
13230;SDS011;6681;53.254;10.398;2023-12-28T13:08:04;7.57;;;2.87;;
13230;SDS011;6681;53.254;10.398;2023-12-28T13:10:30;6.47;;;3.70;;
13230;SDS011;6681;53.254;10.398;2023-12-28T13:12:56;6.60;;;4.37;;
13230;SDS011;6681;53.254;10.398;2023-12-28T13:15:22;11.20;;;2.97;;
13230;SDS011;6681;53.254;10.398;2023-12-28T13:17:47;9.70;;;2.40;;
13230;SDS011;6681;53.254;10.398;2023-12-28T13:20:13;7.87;;;3.57;;
13230;SDS011;6681;53.254;10.398;2023-12-28T13:22:39;8.77;;;2.57;;
13230;SDS011;6681;53.254;10.398;2023-12-28T13:25:05;8.50;;;2.50;;
13230;SDS011;6681;53.254;10.398;2023-12-28T13:27:31;5.33;;;2.33;;
13230;SDS011;6681;53.254;10.398;2023-12-28T13:29:57;12.10;;;2.10;;
13230;SDS011;6681;53.254;10.398;2023-12-28T13:32:23;6.13;;;2.03;;
13230;SDS011;6681;53.254;10.398;2023-12-28T13:34:49;14.40;;;3.63;;
13230;SDS011;6681;53.254;10.398;2023-12-28T13:37:18;5.33;;;2.97;;
13230;SDS011;6681;53.254;10.398;2023-12-28T13:39:43;15.57;;;3.80;;
13230;SDS011;6681;53.254;10.398;2023-12-28T13:42:09;13.33;;;3.33;;
13230;SDS011;6681;53.254;10.398;2023-12-28T13:44:35;4.13;;;1.90;;
13230;SDS011;6681;53.254;10.398;2023-12-28T13:47:04;6.93;;;2.13;;
13230;SDS011;6681;53.254;10.398;2023-12-28T13:49:32;12.23;;;2.13;;
13230;SDS011;6681;53.254;10.398;2023-12-28T13:51:58;7.57;;;3.17;;
13230;SDS011;6681;53.254;10.398;2023-12-28T13:54:24;4.63;;;1.90;;
13230;SDS011;6681;53.254;10.398;2023-12-28T13:56:49;4.30;;;2.20;;
13230;SDS011;6681;53.254;10.398;2023-12-28T13:59:17;6.57;;;1.90;;
13230;SDS011;6681;53.254;10.398;2023-12-28T14:01:42;4.57;;;1.97;;
13230;SDS011;6681;53.254;10.398;2023-12-28T14:04:08;5.87;;;2.40;;
13230;SDS011;6681;53.254;10.398;2023-12-28T14:06:33;12.27;;;2.93;;
13230;SDS011;6681;53.254;10.398;2023-12-28T14:08:59;9.20;;;3.33;;
13230;SDS011;6681;53.254;10.398;2023-12-28T14:11:24;9.67;;;4.07;;
13230;SDS011;6681;53.254;10.398;2023-12-28T14:13:50;6.63;;;3.03;;
13230;SDS011;6681;53.254;10.398;2023-12-28T14:16:16;8.17;;;3.57;;
13230;SDS011;6681;53.254;10.398;2023-12-28T14:18:41;14.40;;;3.17;;
13230;SDS011;6681;53.254;10.398;2023-12-28T14:21:11;11.30;;;3.97;;
13230;SDS011;6681;53.254;10.398;2023-12-28T14:23:40;11.27;;;3.07;;
13230;SDS011;6681;53.254;10.398;2023-12-28T14:26:11;11.00;;;2.37;;
13230;SDS011;6681;53.254;10.398;2023-12-28T14:28:41;4.70;;;2.40;;
13230;SDS011;6681;53.254;10.398;2023-12-28T14:31:11;11.00;;;3.20;;
13230;SDS011;6681;53.254;10.398;2023-12-28T14:33:37;14.60;;;3.23;;
13230;SDS011;6681;53.254;10.398;2023-12-28T14:36:05;6.43;;;2.77;;
13230;SDS011;6681;53.254;10.398;2023-12-28T14:38:40;9.43;;;3.00;;
13230;SDS011;6681;53.254;10.398;2023-12-28T14:41:06;9.77;;;2.57;;
13230;SDS011;6681;53.254;10.398;2023-12-28T14:43:32;6.67;;;2.20;;
13230;SDS011;6681;53.254;10.398;2023-12-28T14:45:57;8.23;;;2.83;;